createdAt,value
2022-11-05T00:00:28.331Z,99.99
2022-11-05T00:01:28.420Z,99.99
2022-11-05T00:02:28.373Z,99.99
2022-11-05T00:03:28.356Z,99.99
2022-11-05T00:04:31.089Z,99.99
2022-11-05T00:05:28.303Z,99.99
2022-11-05T00:06:28.261Z,99.99
2022-11-05T00:07:28.268Z,99.99
2022-11-05T00:08:28.256Z,99.99
2022-11-05T00:09:28.285Z,99.99
2022-11-05T00:10:28.345Z,99.99
2022-11-05T00:11:28.185Z,99.99
2022-11-05T00:12:28.298Z,99.99
2022-11-05T00:13:28.240Z,99.99
2022-11-05T00:14:28.254Z,99.99
2022-11-05T00:15:28.301Z,99.99
2022-11-05T00:16:28.165Z,99.99
2022-11-05T00:17:28.166Z,99.99
2022-11-05T00:18:28.237Z,99.99
2022-11-05T00:19:28.142Z,99.99
2022-11-05T00:20:28.127Z,99.99
2022-11-05T00:21:28.206Z,99.99
2022-11-05T00:22:28.140Z,99.99
2022-11-05T00:23:28.154Z,99.99
2022-11-05T00:24:28.115Z,99.99
2022-11-05T00:25:28.164Z,99.99
2022-11-05T00:26:28.214Z,99.99
2022-11-05T00:27:28.081Z,99.99
2022-11-05T00:28:28.083Z,99.99
2022-11-05T00:29:28.160Z,99.99
2022-11-05T00:30:28.088Z,99.99
2022-11-05T00:31:28.042Z,99.99
2022-11-05T00:32:28.025Z,99.99
2022-11-05T00:33:28.059Z,99.99
2022-11-05T00:34:27.981Z,99.99
2022-11-05T00:35:27.979Z,99.99
2022-11-05T00:36:27.975Z,99.99
2022-11-05T00:37:27.992Z,99.99
2022-11-05T00:38:27.982Z,99.99
2022-11-05T00:39:27.953Z,99.99
2022-11-05T00:40:27.976Z,99.99
2022-11-05T00:41:27.984Z,99.99
2022-11-05T00:42:27.969Z,99.99
2022-11-05T00:43:27.879Z,99.99
2022-11-05T00:44:27.898Z,99.99
2022-11-05T00:45:27.949Z,99.99
2022-11-05T00:46:27.929Z,99.99
2022-11-05T00:47:27.957Z,99.99
2022-11-05T00:48:27.889Z,99.99
2022-11-05T00:49:27.921Z,99.99
2022-11-05T00:50:27.821Z,99.99
2022-11-05T00:51:27.860Z,99.99
2022-11-05T00:52:27.897Z,99.99
2022-11-05T00:53:27.867Z,99.99
2022-11-05T00:54:27.801Z,99.99
2022-11-05T00:55:27.826Z,99.99
2022-11-05T00:56:27.770Z,99.99
2022-11-05T00:57:27.786Z,99.99
2022-11-05T00:58:27.759Z,99.99
2022-11-05T00:59:27.809Z,99.99
2022-11-05T01:00:27.765Z,99.99
2022-11-05T01:01:27.882Z,99.99
2022-11-05T01:02:27.953Z,99.99
2022-11-05T01:03:27.727Z,99.99
2022-11-05T01:04:27.740Z,99.99
2022-11-05T01:05:27.670Z,99.99
2022-11-05T01:06:27.664Z,99.99
2022-11-05T01:07:27.678Z,99.99
2022-11-05T01:08:27.715Z,99.99
2022-11-05T01:09:27.677Z,99.99
2022-11-05T01:10:27.681Z,99.99
2022-11-05T01:11:27.773Z,99.99
2022-11-05T01:12:27.672Z,99.99
2022-11-05T01:13:27.638Z,99.99
2022-11-05T01:14:27.649Z,99.99
2022-11-05T01:15:27.626Z,99.99
2022-11-05T01:16:27.607Z,99.99
2022-11-05T01:17:27.656Z,99.99
2022-11-05T01:18:27.517Z,99.99
2022-11-05T01:19:27.548Z,99.99
2022-11-05T01:20:27.500Z,99.99
2022-11-05T01:21:27.590Z,99.99
2022-11-05T01:22:27.537Z,99.99
2022-11-05T01:23:27.468Z,99.99
2022-11-05T01:24:27.584Z,99.99
2022-11-05T01:25:27.493Z,99.99
2022-11-05T01:26:27.452Z,99.99
2022-11-05T01:27:27.501Z,99.99
2022-11-05T01:28:27.489Z,99.99
2022-11-05T01:29:27.445Z,99.99
2022-11-05T01:30:27.394Z,99.99
2022-11-05T01:31:27.431Z,99.99
2022-11-05T01:32:27.464Z,99.99
2022-11-05T01:33:27.375Z,99.99
2022-11-05T01:34:27.365Z,99.99
2022-11-05T01:35:27.388Z,99.99
2022-11-05T01:36:27.336Z,99.99
2022-11-05T01:37:27.358Z,99.99
2022-11-05T01:38:27.345Z,99.99
2022-11-05T01:39:27.437Z,99.99
2022-11-05T01:40:27.354Z,99.99
2022-11-05T01:41:27.302Z,99.99
2022-11-05T01:42:27.400Z,99.99
2022-11-05T01:43:27.251Z,99.99
2022-11-05T01:44:27.363Z,99.99
2022-11-05T01:45:27.302Z,99.99
2022-11-05T01:46:27.210Z,99.99
2022-11-05T01:47:27.290Z,99.99
2022-11-05T01:48:27.280Z,99.99
2022-11-05T01:49:27.300Z,99.99
2022-11-05T01:50:27.192Z,99.99
2022-11-05T01:51:27.259Z,99.99
2022-11-05T01:52:27.222Z,99.99
2022-11-05T01:53:27.230Z,99.99
2022-11-05T01:54:27.191Z,99.99
2022-11-05T01:55:27.249Z,99.99
2022-11-05T01:56:27.188Z,99.99
2022-11-05T01:57:27.144Z,99.99
2022-11-05T01:58:27.126Z,99.99
2022-11-05T01:59:27.103Z,99.99
2022-11-05T02:00:27.121Z,99.99
2022-11-05T02:01:27.291Z,99.99
2022-11-05T02:02:27.174Z,99.99
2022-11-05T02:03:27.056Z,99.99
2022-11-05T02:04:27.083Z,99.99
2022-11-05T02:05:27.096Z,99.99
2022-11-05T02:06:27.088Z,99.99
2022-11-05T02:07:27.106Z,99.99
2022-11-05T02:08:27.079Z,99.99
2022-11-05T02:09:27.031Z,99.99
2022-11-05T02:10:27.094Z,99.99
2022-11-05T02:11:27.068Z,99.99
2022-11-05T02:12:27.058Z,99.99
2022-11-05T02:13:26.965Z,99.99
2022-11-05T02:14:26.959Z,99.99
2022-11-05T02:15:26.969Z,99.99
2022-11-05T02:16:26.928Z,99.99
2022-11-05T02:17:27.000Z,99.99
2022-11-05T02:18:26.938Z,99.99
2022-11-05T02:19:27.008Z,99.99
2022-11-05T02:20:26.892Z,99.99
2022-11-05T02:21:26.902Z,99.99
2022-11-05T02:22:26.916Z,99.99
2022-11-05T02:23:26.876Z,99.99
2022-11-05T02:24:26.864Z,99.99
2022-11-05T02:25:26.878Z,99.99
2022-11-05T02:26:26.835Z,99.99
2022-11-05T02:27:26.843Z,99.99
2022-11-05T02:28:26.836Z,99.99
2022-11-05T02:29:26.850Z,99.99
2022-11-05T02:30:26.835Z,99.99
2022-11-05T02:31:26.902Z,99.99
2022-11-05T02:32:26.754Z,99.99
2022-11-05T02:33:26.774Z,99.99
2022-11-05T02:34:26.768Z,99.99
2022-11-05T02:35:26.782Z,99.99
2022-11-05T02:36:26.730Z,99.99
2022-11-05T02:37:26.743Z,99.99
2022-11-05T02:38:26.734Z,99.99
2022-11-05T02:39:26.695Z,99.99
2022-11-05T02:40:26.753Z,99.99
2022-11-05T02:41:26.750Z,99.99
2022-11-05T02:42:26.719Z,99.99
2022-11-05T02:43:26.693Z,99.99
2022-11-05T02:44:26.664Z,99.99
2022-11-05T02:45:26.642Z,99.99
2022-11-05T02:46:26.728Z,99.99
2022-11-05T02:47:26.670Z,99.99
2022-11-05T02:48:26.620Z,99.99
2022-11-05T02:49:26.584Z,99.99
2022-11-05T02:50:26.604Z,99.99
2022-11-05T02:51:26.575Z,99.99
2022-11-05T02:52:26.602Z,99.99
2022-11-05T02:53:26.616Z,99.99
2022-11-05T02:54:26.546Z,99.99
2022-11-05T02:55:26.624Z,99.99
2022-11-05T02:56:26.520Z,99.99
2022-11-05T02:57:26.562Z,99.99
2022-11-05T02:58:26.535Z,99.99
2022-11-05T02:59:26.517Z,99.99
2022-11-05T03:00:26.491Z,99.99
2022-11-05T03:01:26.605Z,99.99
2022-11-05T03:02:26.659Z,99.99
2022-11-05T03:03:26.508Z,99.99
2022-11-05T03:04:26.464Z,99.99
2022-11-05T03:05:26.490Z,99.99
2022-11-05T03:06:26.514Z,99.99
2022-11-05T03:07:26.475Z,99.99
2022-11-05T03:08:26.471Z,99.99
2022-11-05T03:09:26.495Z,99.99
2022-11-05T03:10:26.367Z,99.99
2022-11-05T03:11:26.437Z,99.99
2022-11-05T03:12:26.406Z,99.99
2022-11-05T03:13:26.360Z,99.99
2022-11-05T03:14:26.444Z,99.99
2022-11-05T03:15:26.407Z,99.99
2022-11-05T03:16:26.341Z,99.99
2022-11-05T03:17:26.321Z,99.99
2022-11-05T03:18:26.329Z,99.99
2022-11-05T03:19:26.302Z,99.99
2022-11-05T03:20:26.337Z,99.99
2022-11-05T03:21:26.277Z,99.99
2022-11-05T03:22:26.353Z,99.99
2022-11-05T03:23:26.353Z,99.99
2022-11-05T03:24:26.241Z,99.99
2022-11-05T03:25:26.270Z,99.99
2022-11-05T03:26:26.218Z,99.99
2022-11-05T03:27:26.210Z,99.99
2022-11-05T03:28:26.204Z,99.99
2022-11-05T03:29:26.313Z,99.99
2022-11-05T03:30:26.274Z,99.99
2022-11-05T03:31:26.165Z,99.99
2022-11-05T03:32:26.158Z,99.99
2022-11-05T03:33:26.235Z,99.99
2022-11-05T03:34:26.198Z,99.99
2022-11-05T03:35:26.164Z,99.99
2022-11-05T03:36:26.159Z,99.99
2022-11-05T03:37:26.185Z,99.99
2022-11-05T03:38:26.168Z,99.99
2022-11-05T03:39:26.192Z,99.99
2022-11-05T03:40:26.074Z,99.99
2022-11-05T03:41:26.133Z,99.99
2022-11-05T03:42:26.098Z,99.99
2022-11-05T03:43:26.064Z,99.99
2022-11-05T03:44:26.151Z,99.99
2022-11-05T03:45:26.664Z,99.99
2022-11-05T03:46:26.070Z,99.99
2022-11-05T03:47:26.024Z,99.99
2022-11-05T03:48:26.085Z,99.99
2022-11-05T03:49:26.019Z,99.99
2022-11-05T03:50:26.049Z,99.99
2022-11-05T03:51:26.036Z,99.99
2022-11-05T03:52:26.003Z,99.99
2022-11-05T03:53:25.925Z,99.99
2022-11-05T03:54:25.939Z,99.99
2022-11-05T03:55:25.937Z,99.99
2022-11-05T03:56:25.973Z,99.99
2022-11-05T03:57:25.900Z,99.99
2022-11-05T03:58:25.974Z,99.99
2022-11-05T03:59:25.908Z,99.99
2022-11-05T04:00:25.872Z,99.99
2022-11-05T04:01:25.980Z,99.99
2022-11-05T04:02:26.057Z,99.99
2022-11-05T04:03:25.906Z,99.99
2022-11-05T04:04:25.914Z,99.99
2022-11-05T04:05:25.821Z,99.99
2022-11-05T04:06:25.878Z,99.99
2022-11-05T04:07:25.873Z,99.99
2022-11-05T04:08:25.892Z,99.99
2022-11-05T04:09:25.774Z,99.99
2022-11-05T04:10:25.769Z,99.99
2022-11-05T04:11:25.883Z,99.99
2022-11-05T04:12:25.806Z,99.99
2022-11-05T04:13:25.729Z,99.99
2022-11-05T04:14:25.752Z,99.99
2022-11-05T04:15:25.833Z,99.99
2022-11-05T04:16:25.762Z,99.99
2022-11-05T04:17:25.775Z,99.99
2022-11-05T04:18:25.702Z,99.99
2022-11-05T04:19:26.663Z,99.99
2022-11-05T05:41:43.160Z,99.99
2022-11-05T05:42:44.164Z,99.99
2022-11-05T05:43:44.078Z,99.99
2022-11-05T05:44:44.180Z,99.99
2022-11-05T05:45:44.055Z,99.99
2022-11-05T05:46:44.055Z,99.99
2022-11-05T05:47:44.057Z,99.99
2022-11-05T05:48:44.079Z,99.99
2022-11-05T05:49:44.030Z,99.99
2022-11-05T05:50:44.078Z,99.99
2022-11-05T05:51:44.008Z,99.99
2022-11-05T05:52:43.991Z,99.99
2022-11-05T05:53:43.971Z,99.99
2022-11-05T05:54:44.112Z,99.99
2022-11-05T05:55:44.006Z,99.99
2022-11-05T05:56:44.019Z,99.99
2022-11-05T05:57:44.008Z,99.99
2022-11-05T05:58:43.944Z,99.99
2022-11-05T05:59:44.058Z,99.99
2022-11-05T06:00:43.989Z,99.99
2022-11-05T06:01:44.022Z,99.99
2022-11-05T06:02:44.062Z,99.99
2022-11-05T06:03:43.874Z,99.99
2022-11-05T06:04:43.887Z,99.99
2022-11-05T06:05:43.907Z,99.99
2022-11-05T06:06:43.823Z,99.99
2022-11-05T06:07:43.953Z,99.99
2022-11-05T06:08:44.691Z,99.99
2022-11-05T06:09:45.467Z,99.99
2022-11-05T06:10:44.187Z,99.99
2022-11-05T06:11:43.832Z,99.99
2022-11-05T06:12:43.822Z,99.99
2022-11-05T06:13:43.770Z,99.99
2022-11-05T06:14:43.892Z,99.99
2022-11-05T06:15:43.800Z,99.99
2022-11-05T06:16:43.816Z,99.99
2022-11-05T06:17:43.776Z,99.99
2022-11-05T06:18:43.758Z,99.99
2022-11-05T06:19:43.643Z,99.99
2022-11-05T06:20:43.719Z,99.99
2022-11-05T06:21:43.737Z,99.99
2022-11-05T06:22:43.633Z,99.99
2022-11-05T06:23:43.641Z,99.99
2022-11-05T06:24:43.732Z,99.99
2022-11-05T06:25:43.645Z,99.99
2022-11-05T06:26:43.576Z,99.99
2022-11-05T06:27:43.649Z,99.99
2022-11-05T06:28:43.660Z,99.99
2022-11-05T06:29:43.560Z,99.99
2022-11-05T06:30:43.524Z,99.99
2022-11-05T06:31:43.550Z,99.99
2022-11-05T06:32:43.544Z,99.99
2022-11-05T06:33:43.571Z,99.99
2022-11-05T06:34:43.577Z,99.99
2022-11-05T06:35:43.481Z,99.99
2022-11-05T06:36:43.585Z,99.99
2022-11-05T06:37:43.509Z,99.99
2022-11-05T06:38:43.473Z,99.99
2022-11-05T06:39:43.456Z,99.99
2022-11-05T06:40:43.461Z,99.99
2022-11-05T06:42:11.988Z,99.99
2022-11-05T06:42:43.400Z,99.99
2022-11-05T06:43:43.425Z,99.99
2022-11-05T06:44:43.449Z,99.99
2022-11-05T06:45:43.384Z,99.99
2022-11-05T06:46:48.367Z,99.99
2022-11-05T06:47:43.369Z,99.99
2022-11-05T06:48:43.341Z,99.99
2022-11-05T06:49:43.372Z,99.99
2022-11-05T06:50:43.388Z,99.99
2022-11-05T06:51:43.346Z,99.99
2022-11-05T06:52:43.523Z,99.99
2022-11-05T06:53:43.357Z,99.99
2022-11-05T06:54:43.305Z,99.99
2022-11-05T06:55:43.319Z,99.99
2022-11-05T06:56:43.282Z,99.99
2022-11-05T06:57:43.520Z,99.99
2022-11-05T06:58:43.230Z,99.99
2022-11-05T06:59:43.260Z,99.99
2022-11-05T07:00:43.335Z,99.99
2022-11-05T07:01:43.463Z,99.99
2022-11-05T07:02:43.199Z,99.99
2022-11-05T07:03:43.239Z,99.99
2022-11-05T07:04:43.178Z,99.99
2022-11-05T07:05:43.195Z,99.99
2022-11-05T07:06:43.187Z,99.99
2022-11-05T07:07:43.151Z,99.99
2022-11-05T07:08:43.166Z,99.99
2022-11-05T07:09:43.139Z,99.99
2022-11-05T07:10:43.132Z,99.99
2022-11-05T07:11:43.146Z,99.99
2022-11-05T07:12:43.173Z,99.99
2022-11-05T07:13:43.144Z,99.99
2022-11-05T07:14:43.084Z,99.99
2022-11-05T07:15:43.150Z,99.99
2022-11-05T07:16:43.074Z,99.99
2022-11-05T07:17:43.094Z,99.99
2022-11-05T07:18:43.048Z,99.99
2022-11-05T07:19:43.048Z,99.99
2022-11-05T07:20:43.027Z,99.99
2022-11-05T07:21:43.040Z,99.99
2022-11-05T07:22:43.060Z,99.99
2022-11-05T07:23:43.005Z,99.99
2022-11-05T07:24:42.989Z,99.99
2022-11-05T07:25:42.999Z,99.99
2022-11-05T07:26:42.950Z,99.99
2022-11-05T07:27:42.979Z,99.99
2022-11-05T07:28:42.963Z,99.99
2022-11-05T07:29:42.941Z,99.99
2022-11-05T07:30:42.931Z,99.99
2022-11-05T07:31:42.944Z,99.99
2022-11-05T07:32:42.902Z,99.99
2022-11-05T07:33:43.302Z,99.99
2022-11-05T07:34:42.874Z,99.99
2022-11-05T07:35:42.898Z,99.99
2022-11-05T07:36:42.871Z,99.99
2022-11-05T07:37:42.867Z,99.99
2022-11-05T07:38:42.952Z,99.99
2022-11-05T07:39:42.877Z,99.99
2022-11-05T07:40:42.824Z,99.99
2022-11-05T07:41:42.830Z,99.99
2022-11-05T07:42:42.835Z,99.99
2022-11-05T07:43:42.827Z,99.99
2022-11-05T07:44:42.781Z,99.99
2022-11-05T07:45:42.767Z,99.99
2022-11-05T07:46:42.785Z,99.99
2022-11-05T07:47:42.757Z,99.99
2022-11-05T07:48:42.777Z,99.99
2022-11-05T07:49:42.745Z,99.99
2022-11-05T07:50:42.729Z,99.99
2022-11-05T07:51:42.715Z,99.99
2022-11-05T07:52:42.730Z,99.99
2022-11-05T07:53:45.534Z,99.99
2022-11-05T07:54:43.736Z,99.99
2022-11-05T07:55:42.671Z,99.99
2022-11-05T07:56:42.686Z,99.99
2022-11-05T07:57:42.753Z,99.99
2022-11-05T07:58:42.699Z,99.99
2022-11-05T07:59:42.781Z,99.99
2022-11-05T08:00:42.890Z,99.99
2022-11-05T08:01:42.839Z,99.99
2022-11-05T08:02:42.873Z,99.99
2022-11-05T08:03:42.703Z,99.99
2022-11-05T08:04:42.567Z,99.99
2022-11-05T08:05:42.620Z,99.99
2022-11-05T08:06:42.554Z,99.99
2022-11-05T08:07:42.562Z,99.99
2022-11-05T08:08:42.562Z,99.99
2022-11-05T08:09:42.519Z,99.99
2022-11-05T08:10:42.503Z,99.99
2022-11-05T08:11:42.512Z,99.99
2022-11-05T08:12:42.477Z,99.99
2022-11-05T08:13:42.568Z,99.99
2022-11-05T08:14:42.459Z,99.99
2022-11-05T08:15:42.482Z,99.99
2022-11-05T08:16:42.456Z,99.99
2022-11-05T08:17:42.438Z,99.99
2022-11-05T08:18:42.428Z,99.99
2022-11-05T08:19:42.411Z,99.99
2022-11-05T08:20:42.418Z,99.99
2022-11-05T08:21:42.392Z,99.99
2022-11-05T08:22:42.385Z,99.99
2022-11-05T08:23:42.402Z,99.99
2022-11-05T08:24:42.374Z,99.99
2022-11-05T08:25:42.363Z,99.99
2022-11-05T08:26:42.364Z,99.99
2022-11-05T08:27:42.354Z,99.99
2022-11-05T08:28:42.361Z,99.99
2022-11-05T08:29:42.330Z,99.99
2022-11-05T08:30:42.303Z,99.99
2022-11-05T08:31:42.310Z,99.99
2022-11-05T08:32:42.273Z,99.99
2022-11-05T08:33:42.291Z,99.99
2022-11-05T08:34:42.264Z,99.99
2022-11-05T08:35:42.258Z,99.99
2022-11-05T08:36:42.272Z,99.99
2022-11-05T08:37:42.231Z,99.99
2022-11-05T08:38:42.343Z,99.99
2022-11-05T08:39:42.264Z,99.99
2022-11-05T08:40:42.195Z,99.99
2022-11-05T08:41:42.225Z,99.99
2022-11-05T08:42:42.172Z,99.99
2022-11-05T08:43:42.164Z,99.99
2022-11-05T08:44:42.148Z,99.99
2022-11-05T08:45:42.204Z,99.99
2022-11-05T08:46:42.161Z,99.99
2022-11-05T08:47:42.133Z,99.99
2022-11-05T08:48:42.108Z,99.99
2022-11-05T08:49:42.105Z,99.68
2022-11-05T08:50:42.080Z,98.60
2022-11-05T08:51:42.118Z,97.98
2022-11-05T08:52:42.131Z,98.60
2022-11-05T08:53:42.058Z,98.50
2022-11-05T08:54:42.091Z,98.39
2022-11-05T08:55:42.038Z,98.08
2022-11-05T08:56:42.033Z,97.56
2022-11-05T08:57:42.049Z,97.98
2022-11-05T08:58:41.996Z,98.19
2022-11-05T08:59:42.165Z,97.77
2022-11-05T09:00:42.028Z,97.73
2022-11-05T09:01:42.100Z,97.73
2022-11-05T09:02:42.041Z,97.73
2022-11-05T09:03:41.953Z,97.63
2022-11-05T09:04:41.944Z,97.42
2022-11-05T09:05:41.954Z,97.26
2022-11-05T09:06:42.266Z,97.83
2022-11-05T09:07:42.127Z,97.83
2022-11-05T09:08:41.912Z,97.42
2022-11-05T09:09:42.047Z,97.21
2022-11-05T09:10:41.888Z,97.21
2022-11-05T09:12:09.804Z,97.11
2022-11-05T09:12:42.495Z,97.21
2022-11-05T09:13:41.888Z,97.48
2022-11-05T09:14:41.931Z,97.48
2022-11-05T09:15:41.852Z,97.38
2022-11-05T09:16:41.889Z,97.38
2022-11-05T09:17:41.812Z,96.92
2022-11-05T09:18:41.820Z,96.92
2022-11-05T09:19:41.793Z,96.09
2022-11-05T09:20:41.797Z,95.64
2022-11-05T09:21:41.792Z,96.15
2022-11-05T09:22:43.424Z,95.84
2022-11-05T09:23:41.751Z,95.12
2022-11-05T09:24:41.760Z,95.28
2022-11-05T09:25:41.754Z,95.18
2022-11-05T09:26:42.114Z,94.98
2022-11-05T09:27:42.587Z,94.56
2022-11-05T09:28:41.956Z,94.56
2022-11-05T09:29:41.753Z,94.46
2022-11-05T09:30:41.855Z,94.26
2022-11-05T09:31:41.671Z,94.11
2022-11-05T09:32:41.683Z,93.70
2022-11-05T09:33:41.702Z,94.01
2022-11-05T09:34:41.638Z,93.90
2022-11-05T09:35:41.625Z,93.24
2022-11-05T09:36:41.639Z,92.83
2022-11-05T09:37:41.603Z,93.76
2022-11-05T09:38:41.625Z,93.55
2022-11-05T09:39:42.289Z,92.42
2022-11-05T09:40:41.599Z,92.73
2022-11-05T09:41:41.569Z,92.79
2022-11-05T09:42:41.584Z,92.27
2022-11-05T09:43:41.548Z,91.76
2022-11-05T09:44:41.566Z,91.66
2022-11-05T09:45:41.579Z,91.04
2022-11-05T09:46:41.549Z,91.55
2022-11-05T09:47:41.556Z,91.14
2022-11-05T09:48:41.500Z,91.86
2022-11-05T09:49:41.498Z,90.94
2022-11-05T09:50:41.473Z,91.45
2022-11-05T09:51:41.469Z,91.35
2022-11-05T09:52:41.470Z,91.41
2022-11-05T09:53:41.461Z,91.10
2022-11-05T09:54:41.455Z,91.25
2022-11-05T09:55:41.431Z,91.10
2022-11-05T09:56:42.392Z,90.89
2022-11-05T09:57:41.444Z,90.18
2022-11-05T09:58:41.459Z,90.59
2022-11-05T09:59:41.386Z,89.66
2022-11-05T10:00:41.417Z,90.08
2022-11-05T10:01:41.541Z,89.76
2022-11-05T10:02:41.461Z,89.66
2022-11-05T10:03:41.347Z,89.36
2022-11-05T10:04:41.352Z,89.46
2022-11-05T10:05:41.466Z,89.76
2022-11-05T10:06:41.337Z,89.36
2022-11-05T10:07:41.342Z,89.87
2022-11-05T10:08:41.307Z,89.87
2022-11-05T10:09:41.310Z,90.24
2022-11-05T10:10:41.564Z,89.93
2022-11-05T10:11:41.251Z,89.01
2022-11-05T10:12:41.257Z,89.93
2022-11-05T10:13:41.267Z,89.21
2022-11-05T10:14:41.230Z,88.49
2022-11-05T10:15:41.227Z,89.21
2022-11-05T10:16:41.242Z,88.90
2022-11-05T10:17:41.194Z,89.11
2022-11-05T10:18:41.195Z,89.21
2022-11-05T10:19:41.224Z,89.11
2022-11-05T10:20:41.234Z,89.21
2022-11-05T10:22:45.176Z,88.45
2022-11-05T10:23:41.184Z,87.98
2022-11-05T10:24:41.183Z,88.86
2022-11-05T10:25:41.132Z,88.76
2022-11-05T10:26:41.855Z,87.84
2022-11-05T10:27:41.155Z,87.84
2022-11-05T10:28:41.109Z,87.22
2022-11-05T10:29:41.099Z,87.22
2022-11-05T10:30:41.096Z,87.84
2022-11-05T10:31:41.285Z,87.28
2022-11-05T10:42:42.256Z,86.52
2022-11-05T10:43:42.521Z,86.01
2022-11-05T10:44:42.661Z,85.80
2022-11-05T10:45:42.427Z,86.11
2022-11-05T10:46:42.416Z,86.01
2022-11-05T10:47:42.379Z,85.71
2022-11-05T10:48:43.926Z,85.71
2022-11-05T10:49:42.387Z,85.56
2022-11-05T10:50:42.378Z,85.66
2022-11-05T10:51:42.602Z,85.46
2022-11-05T10:52:42.379Z,84.33
2022-11-05T10:53:42.459Z,85.05
2022-11-05T10:54:42.353Z,84.64
2022-11-05T10:55:42.293Z,84.84
2022-11-05T10:56:42.305Z,84.84
2022-11-05T10:57:42.691Z,84.23
2022-11-05T10:58:42.437Z,84.74
2022-11-05T10:59:42.346Z,84.03
2022-11-05T11:00:42.801Z,84.80
2022-11-05T11:01:42.391Z,84.29
2022-11-05T11:02:42.260Z,84.19
2022-11-05T11:03:42.305Z,83.98
2022-11-05T11:04:43.298Z,83.98
2022-11-05T11:05:42.369Z,84.19
2022-11-05T11:06:42.457Z,83.58
2022-11-05T11:07:42.285Z,84.39
2022-11-05T11:08:42.235Z,84.29
2022-11-05T11:09:42.243Z,83.68
2022-11-05T11:10:42.231Z,83.88
2022-11-05T11:11:42.219Z,83.78
2022-11-05T11:12:42.144Z,84.60
2022-11-05T11:13:42.282Z,84.19
2022-11-05T11:14:42.120Z,84.39
2022-11-05T11:15:52.991Z,84.39
2022-11-05T11:23:12.046Z,83.98
2022-11-05T11:24:12.798Z,83.88
2022-11-05T11:25:12.808Z,84.09
2022-11-05T11:26:13.584Z,83.68
2022-11-05T11:27:13.333Z,83.98
2022-11-05T11:59:46.632Z,82.27
2022-11-05T12:00:27.166Z,81.96
2022-11-05T12:01:27.166Z,82.37
2022-11-05T12:02:27.082Z,82.43
2022-11-05T12:03:27.124Z,82.23
2022-11-05T12:04:27.018Z,82.23
2022-11-05T12:05:27.002Z,81.51
2022-11-05T12:06:26.980Z,81.10
2022-11-05T12:07:26.993Z,81.10
2022-11-05T12:08:26.962Z,81.21
2022-11-05T12:09:26.991Z,81.41
2022-11-05T12:10:26.971Z,81.82
2022-11-05T12:11:26.915Z,81.01
2022-11-05T12:12:26.972Z,80.49
2022-11-05T12:13:26.922Z,81.41
2022-11-05T12:14:26.883Z,80.69
2022-11-05T12:15:26.897Z,80.87
2022-11-05T12:16:26.890Z,80.87
2022-11-05T12:17:26.884Z,80.97
2022-11-05T12:18:26.872Z,80.46
2022-11-05T12:19:26.875Z,79.94
2022-11-05T12:20:26.852Z,80.46
2022-11-05T12:21:48.107Z,80.25
2022-11-05T12:22:26.830Z,80.46
2022-11-05T12:23:26.878Z,80.46
2022-11-05T12:24:26.827Z,80.35
2022-11-05T12:25:26.928Z,80.35
2022-11-05T12:26:26.764Z,80.35
2022-11-05T12:27:26.756Z,80.46
2022-11-05T12:28:26.773Z,80.76
2022-11-05T12:29:30.188Z,80.35
2022-11-05T12:30:26.730Z,79.94
2022-11-05T12:31:26.731Z,80.35
2022-11-05T12:32:26.760Z,80.29
2022-11-05T12:33:26.682Z,80.39
2022-11-05T12:34:26.689Z,80.80
2022-11-05T12:35:26.680Z,80.39
2022-11-05T12:36:26.661Z,80.39
2022-11-05T12:37:26.633Z,80.49
2022-11-05T12:38:26.647Z,80.69
2022-11-05T12:39:26.639Z,79.57
2022-11-05T12:40:26.630Z,80.49
2022-11-05T12:41:26.612Z,80.19
2022-11-05T12:42:56.138Z,80.39
2022-11-05T12:43:26.595Z,79.78
2022-11-05T12:44:26.572Z,79.47
2022-11-05T12:45:26.558Z,79.16
2022-11-05T12:46:26.644Z,79.68
2022-11-05T12:47:26.656Z,79.68
2022-11-05T12:48:30.301Z,80.35
2022-11-05T12:49:26.555Z,78.96
2022-11-05T12:50:26.571Z,80.08
2022-11-05T12:51:26.490Z,79.53
2022-11-05T12:52:26.500Z,79.13
2022-11-05T12:53:26.470Z,79.13
2022-11-05T12:54:26.484Z,79.13
2022-11-05T12:55:26.529Z,79.33
2022-11-05T12:56:26.453Z,78.52
2022-11-05T12:57:26.441Z,78.41
2022-11-05T12:58:26.421Z,78.20
2022-11-05T12:59:26.396Z,78.72
2022-11-05T13:00:26.430Z,77.19
2022-11-05T13:01:26.494Z,78.00
2022-11-05T13:02:26.408Z,78.41
2022-11-05T13:03:26.386Z,78.52
2022-11-05T13:04:26.357Z,78.20
2022-11-05T13:05:26.363Z,77.90
2022-11-05T13:06:26.348Z,78.82
2022-11-05T13:07:26.351Z,79.64
2022-11-05T13:08:26.373Z,78.72
2022-11-05T13:09:26.292Z,77.80
2022-11-05T13:10:26.348Z,78.11
2022-11-05T13:11:26.310Z,77.70
2022-11-05T13:12:26.284Z,78.00
2022-11-05T13:13:26.284Z,78.72
2022-11-05T13:14:26.257Z,78.61
2022-11-05T13:15:26.245Z,78.20
2022-11-05T13:16:26.262Z,79.02
2022-11-05T14:08:02.484Z,76.64
2022-11-05T14:09:03.447Z,77.76
2022-11-05T14:10:03.422Z,77.76
2022-11-05T14:11:03.334Z,77.91
2022-11-05T14:12:03.284Z,77.91
2022-11-05T14:13:03.404Z,77.60
2022-11-05T14:14:03.243Z,78.01
2022-11-05T14:15:03.243Z,77.91
2022-11-05T14:16:03.220Z,76.47
2022-11-05T14:17:03.218Z,77.64
2022-11-05T14:18:03.209Z,77.84
2022-11-05T14:19:03.192Z,78.05
2022-11-05T14:20:03.291Z,78.45
2022-11-05T14:21:03.176Z,78.35
2022-11-05T14:22:03.157Z,78.76
2022-11-05T14:23:08.807Z,78.86
2022-11-05T14:24:03.142Z,79.48
2022-11-05T14:25:03.128Z,79.48
2022-11-05T14:26:03.127Z,79.82
2022-11-05T14:27:03.121Z,79.89
2022-11-05T14:28:03.103Z,79.58
2022-11-05T14:29:03.091Z,79.41
2022-11-05T14:30:03.072Z,79.82
2022-11-05T14:31:03.068Z,79.82
2022-11-05T14:32:08.983Z,79.52
2022-11-05T14:33:03.067Z,80.13
2022-11-05T14:34:03.060Z,79.93
2022-11-05T14:35:03.027Z,79.62
2022-11-05T14:36:03.034Z,80.23
2022-11-05T14:37:03.014Z,80.64
2022-11-05T14:38:03.154Z,79.93
2022-11-05T14:39:04.436Z,79.62
2022-11-05T14:40:02.977Z,79.72
2022-11-05T14:41:02.974Z,79.72
2022-11-05T14:42:02.994Z,79.93
2022-11-05T14:43:02.937Z,79.93
2022-11-05T14:44:03.032Z,80.03
2022-11-05T14:45:03.040Z,80.68
2022-11-05T14:46:02.919Z,80.78
2022-11-05T14:47:02.901Z,81.20
2022-11-05T14:48:02.914Z,80.78
2022-11-05T14:49:09.295Z,80.78
2022-11-05T14:50:02.928Z,80.68
2022-11-05T14:51:02.848Z,80.47
2022-11-05T14:52:02.940Z,80.99
2022-11-05T14:53:02.834Z,81.40
2022-11-05T14:54:02.860Z,81.43
2022-11-05T14:55:02.867Z,81.20
2022-11-05T14:56:02.835Z,81.09
2022-11-05T14:57:02.800Z,81.50
2022-11-05T14:58:02.816Z,81.60
2022-11-05T14:59:02.764Z,81.85
2022-11-05T15:00:02.835Z,81.60
2022-11-05T15:01:02.878Z,82.15
2022-11-05T15:02:02.897Z,81.71
2022-11-05T15:03:02.745Z,81.13
2022-11-05T15:04:02.787Z,81.23
2022-11-05T15:05:02.746Z,81.34
2022-11-05T15:06:02.714Z,81.85
2022-11-05T15:07:02.724Z,81.02
2022-11-05T15:08:02.725Z,80.72
2022-11-05T15:09:02.669Z,80.92
2022-11-05T15:10:08.867Z,80.72
2022-11-05T15:11:02.661Z,80.72
2022-11-05T15:12:02.683Z,80.72
2022-11-05T15:13:02.634Z,80.51
2022-11-05T15:14:02.639Z,80.10
2022-11-05T15:15:02.601Z,80.62
2022-11-05T15:16:02.646Z,80.72
2022-11-05T15:17:02.590Z,80.51
2022-11-05T15:18:02.607Z,79.90
2022-11-05T15:19:02.562Z,80.51
2022-11-05T15:20:02.586Z,80.92
2022-11-05T15:21:02.552Z,81.02
2022-11-05T15:22:02.538Z,80.92
2022-11-05T15:23:02.559Z,80.72
2022-11-05T15:24:02.523Z,81.02
2022-11-05T15:25:02.514Z,81.74
2022-11-05T15:26:02.507Z,81.23
2022-11-05T15:27:02.482Z,81.23
2022-11-05T15:28:02.493Z,81.85
2022-11-05T15:29:02.490Z,81.74
2022-11-05T15:30:02.505Z,81.54
2022-11-05T15:31:02.457Z,81.64
2022-11-05T15:32:02.454Z,81.54
2022-11-05T15:33:02.425Z,81.64
2022-11-05T15:34:02.424Z,82.36
2022-11-05T15:35:02.407Z,82.67
2022-11-05T15:36:02.433Z,82.87
2022-11-05T15:37:02.413Z,81.95
2022-11-05T15:38:02.904Z,83.28
2022-11-05T15:39:28.035Z,82.67
2022-11-05T15:40:02.375Z,82.36
2022-11-05T15:41:02.369Z,81.88
2022-11-05T15:42:02.338Z,81.85
2022-11-05T15:43:02.303Z,81.48
2022-11-05T15:44:02.321Z,81.27
2022-11-05T15:45:02.314Z,82.19
2022-11-05T15:46:02.291Z,82.70
2022-11-05T15:47:02.380Z,82.50
2022-11-05T15:48:02.274Z,82.19
2022-11-05T15:49:02.270Z,82.29
2022-11-05T15:50:02.262Z,82.09
2022-11-05T15:51:02.236Z,83.67
2022-11-05T15:52:02.259Z,83.15
2022-11-05T15:53:27.505Z,83.56